createdAt,value
2018-03-11T00:03:06.597Z,2.80
2018-03-11T00:05:35.551Z,4.50
2018-03-11T00:08:04.916Z,2.87
2018-03-11T00:10:33.276Z,2.80
2018-03-11T00:13:02.178Z,3.27
2018-03-11T00:15:30.604Z,3.80
2018-03-11T00:17:58.991Z,3.43
2018-03-11T00:20:27.316Z,3.63
2018-03-11T00:22:55.668Z,2.97
2018-03-11T00:25:24.059Z,3.73
2018-03-11T00:27:52.437Z,3.10
2018-03-11T00:30:20.883Z,3.00
2018-03-11T00:32:50.036Z,3.00
2018-03-11T00:35:18.732Z,3.30
2018-03-11T00:37:47.926Z,3.13
2018-03-11T00:40:18.541Z,2.70
2018-03-11T00:42:47.057Z,3.70
2018-03-11T00:45:15.476Z,3.17
2018-03-11T00:47:44.133Z,3.77
2018-03-11T00:50:12.459Z,3.90
2018-03-11T00:52:42.417Z,3.00
2018-03-11T00:55:10.885Z,3.30
2018-03-11T00:57:39.325Z,3.77
2018-03-11T01:00:07.663Z,2.83
2018-03-11T01:02:36.020Z,3.20
2018-03-11T01:05:04.401Z,3.70
2018-03-11T01:07:33.557Z,3.10
2018-03-11T01:10:01.994Z,2.90
2018-03-11T01:12:30.328Z,2.90
2018-03-11T01:14:59.124Z,3.70
2018-03-11T01:17:27.545Z,3.17
2018-03-11T01:19:56.132Z,2.60
2018-03-11T01:22:24.642Z,3.33
2018-03-11T01:24:53.001Z,2.90
2018-03-11T01:27:21.930Z,3.33
2018-03-11T01:29:50.521Z,2.47
2018-03-11T01:32:18.836Z,3.40
2018-03-11T01:34:47.147Z,2.30
2018-03-11T01:37:15.486Z,2.20
2018-03-11T01:39:43.842Z,2.60
2018-03-11T01:42:12.573Z,2.30
2018-03-11T01:44:40.944Z,2.40
2018-03-11T01:47:09.352Z,2.50
2018-03-11T01:49:37.680Z,2.60
2018-03-11T01:52:06.060Z,2.60
2018-03-11T01:54:34.501Z,2.70
2018-03-11T01:57:15.360Z,2.20
2018-03-11T01:59:43.819Z,1.80
2018-03-11T02:02:12.190Z,3.20
2018-03-11T02:04:40.593Z,2.20
2018-03-11T02:07:08.923Z,1.97
2018-03-11T02:09:37.280Z,3.13
2018-03-11T02:12:05.612Z,2.10
2018-03-11T02:14:34.284Z,2.57
2018-03-11T02:17:02.686Z,2.90
2018-03-11T02:19:31.232Z,2.63
2018-03-11T02:21:59.679Z,2.20
2018-03-11T02:24:27.993Z,2.97
2018-03-11T02:26:56.355Z,2.67
2018-03-11T02:29:24.688Z,2.57
2018-03-11T02:31:53.090Z,3.23
2018-03-11T02:34:21.479Z,2.90
2018-03-11T02:36:49.827Z,2.40
2018-03-11T02:39:18.215Z,2.40
2018-03-11T02:41:46.526Z,2.90
2018-03-11T02:44:14.855Z,2.70
2018-03-11T02:46:43.243Z,2.47
2018-03-11T02:49:11.911Z,2.60
2018-03-11T02:51:40.220Z,2.50
2018-03-11T02:54:08.592Z,2.83
2018-03-11T02:56:36.908Z,1.83
2018-03-11T02:59:05.669Z,2.93
2018-03-11T03:01:33.974Z,2.20
2018-03-11T03:04:02.480Z,2.97
2018-03-11T03:06:30.818Z,2.70
2018-03-11T03:08:59.210Z,2.30
2018-03-11T03:11:27.533Z,2.43
2018-03-11T03:13:55.875Z,3.00
2018-03-11T03:16:24.185Z,2.43
2018-03-11T03:18:52.535Z,2.67
2018-03-11T03:21:21.828Z,2.20
2018-03-11T03:23:50.125Z,2.10
2018-03-11T03:26:18.532Z,1.80
2018-03-11T03:28:46.908Z,2.10
2018-03-11T03:31:15.241Z,2.20
2018-03-11T03:33:43.538Z,2.37
2018-03-11T03:36:12.796Z,1.60
2018-03-11T03:38:41.138Z,2.23
2018-03-11T03:41:09.516Z,1.70
2018-03-11T03:43:38.173Z,2.47
2018-03-11T03:46:06.461Z,1.83
2018-03-11T03:48:34.800Z,1.70
2018-03-11T03:51:03.142Z,1.50
2018-03-11T03:53:31.598Z,2.17
2018-03-11T03:55:59.936Z,2.10
2018-03-11T03:58:28.248Z,2.00
2018-03-11T04:00:58.224Z,2.57
2018-03-11T04:03:26.526Z,1.73
2018-03-11T04:05:55.160Z,1.90
2018-03-11T04:08:23.510Z,2.17
2018-03-11T04:10:51.835Z,1.50
2018-03-11T04:13:20.151Z,1.80
2018-03-11T04:15:48.487Z,1.57
2018-03-11T04:18:16.826Z,1.80
2018-03-11T04:20:45.602Z,3.20
2018-03-11T04:23:13.893Z,2.90
2018-03-11T04:25:42.226Z,1.67
2018-03-11T04:28:10.537Z,1.90
2018-03-11T04:30:38.852Z,2.00
2018-03-11T04:33:08.116Z,1.93
2018-03-11T04:35:36.423Z,1.77
2018-03-11T04:38:04.770Z,2.30
2018-03-11T04:40:33.139Z,1.77
2018-03-11T04:43:01.491Z,2.23
2018-03-11T04:45:29.902Z,1.80
2018-03-11T04:47:58.201Z,1.60
2018-03-11T04:50:26.520Z,1.47
2018-03-11T04:52:54.828Z,2.00
2018-03-11T04:55:23.156Z,1.60
2018-03-11T04:57:51.477Z,1.90
2018-03-11T05:00:19.798Z,2.00
2018-03-11T05:02:48.106Z,2.40
2018-03-11T05:05:16.437Z,2.13
2018-03-11T05:07:44.756Z,1.13
2018-03-11T05:10:13.076Z,1.40
2018-03-11T05:12:41.399Z,2.00
2018-03-11T05:15:09.755Z,1.10
2018-03-11T05:17:38.092Z,1.67
2018-03-11T05:20:06.431Z,1.40
2018-03-11T05:22:35.000Z,1.40
2018-03-11T05:25:03.332Z,1.90
2018-03-11T05:27:31.664Z,2.03
2018-03-11T05:30:00.230Z,1.30
2018-03-11T05:32:28.577Z,1.30
2018-03-11T05:34:56.879Z,1.63
2018-03-11T05:37:25.200Z,1.50
2018-03-11T05:39:53.527Z,1.90
2018-03-11T05:42:21.907Z,1.90
2018-03-11T05:44:50.202Z,2.10
2018-03-11T05:47:18.629Z,2.60
2018-03-11T05:49:46.943Z,1.47
2018-03-11T05:52:15.235Z,1.60
2018-03-11T05:54:43.552Z,1.63
2018-03-11T05:57:12.123Z,1.37
2018-03-11T05:59:40.463Z,2.00
2018-03-11T06:02:08.800Z,2.40
2018-03-11T06:04:37.219Z,1.57
2018-03-11T06:07:05.613Z,2.07
2018-03-11T06:09:34.057Z,1.43
2018-03-11T06:12:02.527Z,1.17
2018-03-11T06:14:31.008Z,1.60
2018-03-11T06:16:59.344Z,1.50
2018-03-11T06:19:27.691Z,1.20
2018-03-11T06:21:55.994Z,1.10
2018-03-11T06:24:24.348Z,1.40
2018-03-11T06:26:52.658Z,2.40
2018-03-11T06:29:21.003Z,1.77
2018-03-11T06:31:49.599Z,2.13
2018-03-11T06:34:17.953Z,1.50
2018-03-11T06:36:46.280Z,1.20
2018-03-11T06:39:14.960Z,0.70
2018-03-11T06:41:43.319Z,0.90
2018-03-11T06:44:11.763Z,1.40
2018-03-11T06:46:40.079Z,1.63
2018-03-11T06:49:08.431Z,1.40
2018-03-11T06:51:36.735Z,1.57
2018-03-11T06:54:05.075Z,1.10
2018-03-11T06:56:33.555Z,1.23
2018-03-11T06:59:01.963Z,1.30
2018-03-11T07:01:30.294Z,1.23
2018-03-11T07:03:58.722Z,1.37
2018-03-11T07:06:27.057Z,1.80
2018-03-11T07:08:56.322Z,2.00
2018-03-11T07:11:24.772Z,1.37
2018-03-11T07:13:53.154Z,1.03
2018-03-11T07:16:21.533Z,1.40
2018-03-11T07:18:52.433Z,1.50
2018-03-11T07:21:20.800Z,3.13
2018-03-11T07:23:49.141Z,1.37
2018-03-11T07:26:17.599Z,1.47
2018-03-11T07:28:46.016Z,1.70
2018-03-11T07:31:15.030Z,1.43
2018-03-11T07:33:43.891Z,2.93
2018-03-11T07:36:12.222Z,1.60
2018-03-11T07:38:40.554Z,1.50
2018-03-11T07:41:09.086Z,1.47
2018-03-11T07:43:37.423Z,1.13
2018-03-11T07:46:05.754Z,2.60
2018-03-11T07:48:34.193Z,1.97
2018-03-11T07:51:02.573Z,1.53
2018-03-11T07:53:31.111Z,2.67
2018-03-11T07:55:59.415Z,1.50
2018-03-11T07:58:27.757Z,1.60
2018-03-11T08:00:56.184Z,2.90
2018-03-11T08:03:24.558Z,2.07
2018-03-11T08:05:54.867Z,2.00
2018-03-11T08:08:23.188Z,1.97
2018-03-11T08:10:52.387Z,2.00
2018-03-11T08:13:20.735Z,1.43
2018-03-11T08:15:49.103Z,2.33
2018-03-11T08:18:17.427Z,1.00
2018-03-11T08:20:45.742Z,1.50
2018-03-11T08:23:14.061Z,2.20
2018-03-11T08:25:42.406Z,2.70
2018-03-11T08:28:10.733Z,1.40
2018-03-11T08:30:39.060Z,2.30
2018-03-11T08:33:07.421Z,2.00
2018-03-11T08:35:35.769Z,2.70
2018-03-11T08:38:04.187Z,2.23
2018-03-11T08:40:32.531Z,3.03
2018-03-11T08:43:00.910Z,1.67
2018-03-11T08:45:29.214Z,2.63
2018-03-11T08:47:57.541Z,2.20
2018-03-11T08:50:26.037Z,1.50
2018-03-11T08:52:54.389Z,3.50
2018-03-11T08:55:22.727Z,3.13
2018-03-11T08:57:51.055Z,3.93
2018-03-11T09:00:19.473Z,3.23
2018-03-11T09:02:47.778Z,1.80
2018-03-11T09:05:16.152Z,1.93
2018-03-11T09:07:44.462Z,2.23
2018-03-11T09:10:12.801Z,2.27
2018-03-11T09:12:41.129Z,1.80
2018-03-11T09:15:09.435Z,2.30
2018-03-11T09:17:37.769Z,1.80
2018-03-11T09:20:06.073Z,2.10
2018-03-11T09:22:34.493Z,1.60
2018-03-11T09:25:02.828Z,2.13
2018-03-11T09:27:31.973Z,2.10
2018-03-11T09:30:00.706Z,2.23
2018-03-11T09:32:29.087Z,2.43
2018-03-11T09:34:57.468Z,2.60
2018-03-11T09:37:25.796Z,3.00
2018-03-11T09:39:54.360Z,2.13
2018-03-11T09:42:22.692Z,3.00
2018-03-11T09:44:51.035Z,2.03
2018-03-11T09:47:19.366Z,2.33
2018-03-11T09:49:47.738Z,2.53
2018-03-11T09:52:16.137Z,2.60
2018-03-11T09:54:44.488Z,2.60
2018-03-11T09:57:12.859Z,2.00
2018-03-11T09:59:41.181Z,2.47
2018-03-11T10:02:09.507Z,1.63
2018-03-11T10:04:37.824Z,2.20
2018-03-11T10:07:06.155Z,2.80
2018-03-11T10:09:34.479Z,2.83
2018-03-11T10:12:02.982Z,1.80
2018-03-11T10:14:31.408Z,1.70
2018-03-11T10:16:59.732Z,2.20
2018-03-11T10:19:28.064Z,2.30
2018-03-11T10:21:56.634Z,2.73
2018-03-11T10:24:25.357Z,2.67
2018-03-11T10:26:53.690Z,1.77
2018-03-11T10:29:22.220Z,2.10
2018-03-11T10:31:50.560Z,2.53
2018-03-11T10:34:19.030Z,2.40
2018-03-11T10:36:47.754Z,2.20
2018-03-11T10:39:16.177Z,1.97
2018-03-11T10:41:44.566Z,2.70
2018-03-11T10:44:12.897Z,2.53
2018-03-11T10:46:41.215Z,1.90
2018-03-11T10:49:09.555Z,1.90
2018-03-11T10:51:37.834Z,2.87
2018-03-11T10:54:06.168Z,1.50
2018-03-11T10:56:34.516Z,2.40
2018-03-11T10:59:02.848Z,1.97
2018-03-11T11:01:36.657Z,2.90
2018-03-11T11:04:14.699Z,1.83
2018-03-11T11:06:43.026Z,1.77
2018-03-11T11:09:11.346Z,2.37
2018-03-11T11:11:39.651Z,3.00
2018-03-11T11:14:07.991Z,3.00
2018-03-11T11:16:36.320Z,2.30
2018-03-11T11:19:04.664Z,2.60
2018-03-11T11:21:33.030Z,2.63
2018-03-11T11:24:01.349Z,1.90
2018-03-11T11:26:29.786Z,1.60
2018-03-11T11:28:58.123Z,2.33
2018-03-11T11:31:26.467Z,2.83
2018-03-11T11:33:54.798Z,1.60
2018-03-11T11:36:23.140Z,1.90
2018-03-11T11:38:51.471Z,1.97
2018-03-11T11:41:19.828Z,1.83
2018-03-11T11:43:48.203Z,1.40
2018-03-11T11:46:16.512Z,1.70
2018-03-11T11:48:44.843Z,2.60
2018-03-11T11:51:13.144Z,1.33
2018-03-11T11:53:41.469Z,1.37
2018-03-11T11:56:09.785Z,1.50
2018-03-11T11:58:38.160Z,1.60
2018-03-11T12:01:06.493Z,2.27
2018-03-11T12:03:34.816Z,1.80
2018-03-11T12:06:03.183Z,2.03
2018-03-11T12:08:31.504Z,2.33
2018-03-11T12:10:59.828Z,2.10
2018-03-11T12:13:28.162Z,2.00
2018-03-11T12:15:56.492Z,2.17
2018-03-11T12:18:24.831Z,2.23
2018-03-11T12:20:53.171Z,1.60
2018-03-11T12:23:21.482Z,2.37
2018-03-11T12:25:50.582Z,2.13
2018-03-11T12:28:18.888Z,2.00
2018-03-11T12:30:47.322Z,1.33
2018-03-11T12:33:15.639Z,2.07
2018-03-11T12:35:43.964Z,1.40
2018-03-11T12:38:12.287Z,1.90
2018-03-11T12:40:40.615Z,2.40
2018-03-11T12:43:08.928Z,2.57
2018-03-11T12:45:37.274Z,2.93
2018-03-11T12:48:05.588Z,1.60
2018-03-11T12:50:33.896Z,2.40
2018-03-11T12:53:02.236Z,1.90
2018-03-11T12:55:30.583Z,2.23
2018-03-11T12:57:58.912Z,2.30
2018-03-11T13:00:27.357Z,2.27
2018-03-11T13:02:55.671Z,3.80
2018-03-11T13:05:24.018Z,3.40
2018-03-11T13:07:52.338Z,2.43
2018-03-11T13:10:20.653Z,1.80
2018-03-11T13:12:49.053Z,1.50
2018-03-11T13:15:17.391Z,2.10
2018-03-11T13:17:45.712Z,3.50
2018-03-11T13:20:25.693Z,2.20
2018-03-11T13:22:54.009Z,2.00
2018-03-11T13:25:22.342Z,2.50
2018-03-11T13:28:02.480Z,2.07
2018-03-11T13:30:30.866Z,3.13
2018-03-11T13:33:10.979Z,2.33
2018-03-11T13:35:39.288Z,3.03
2018-03-11T13:38:19.285Z,2.60
2018-03-11T13:40:47.625Z,2.90
2018-03-11T13:43:15.994Z,3.40
2018-03-11T13:45:55.944Z,3.23
2018-03-11T13:48:24.293Z,2.17
2018-03-11T13:50:52.649Z,2.50
2018-03-11T13:53:32.752Z,3.20
2018-03-11T13:56:01.060Z,3.40
2018-03-11T13:58:41.152Z,1.70
2018-03-11T14:01:09.463Z,3.20
2018-03-11T14:03:37.808Z,3.20
2018-03-11T14:06:06.155Z,2.53
2018-03-11T14:08:34.508Z,3.03
2018-03-11T14:11:02.913Z,3.10
2018-03-11T14:13:31.253Z,3.97
2018-03-11T14:15:59.617Z,3.37
2018-03-11T14:18:27.932Z,3.27
2018-03-11T14:20:56.277Z,3.27
2018-03-11T14:23:24.600Z,4.43
2018-03-11T14:25:52.916Z,2.73
2018-03-11T14:28:21.496Z,2.30
2018-03-11T14:30:49.840Z,2.40
2018-03-11T14:33:18.504Z,2.53
2018-03-11T14:35:46.812Z,2.50
2018-03-11T14:38:15.256Z,4.57
2018-03-11T14:40:43.773Z,3.97
2018-03-11T14:43:12.124Z,2.90
2018-03-11T14:45:40.452Z,3.33
2018-03-11T14:48:08.788Z,3.60
2018-03-11T14:50:37.091Z,3.20
2018-03-11T14:53:05.438Z,5.70
2018-03-11T14:55:33.813Z,4.00
2018-03-11T14:58:02.129Z,3.93
2018-03-11T15:00:30.875Z,2.83
2018-03-11T15:02:59.188Z,2.77
2018-03-11T15:05:27.524Z,2.83
2018-03-11T15:07:55.838Z,2.50
2018-03-11T15:10:24.142Z,2.80
2018-03-11T15:12:52.473Z,2.63
2018-03-11T15:15:20.813Z,2.47
2018-03-11T15:17:49.135Z,2.30
2018-03-11T15:20:17.444Z,2.90
2018-03-11T15:22:45.764Z,2.60
2018-03-11T15:25:14.084Z,2.90
2018-03-11T15:27:42.389Z,2.50
2018-03-11T15:30:10.772Z,2.43
2018-03-11T15:32:39.099Z,4.10
2018-03-11T15:35:07.466Z,2.23
2018-03-11T15:37:35.819Z,3.00
2018-03-11T15:40:04.275Z,2.70
2018-03-11T15:42:32.811Z,4.00
2018-03-11T15:45:01.122Z,4.10
2018-03-11T15:47:29.451Z,3.40
2018-03-11T15:49:57.804Z,3.00
2018-03-11T15:52:26.122Z,4.40
2018-03-11T15:54:54.447Z,4.00
2018-03-11T15:57:22.809Z,3.67
2018-03-11T15:59:51.123Z,3.77
2018-03-11T16:02:19.467Z,3.07
2018-03-11T16:04:47.811Z,2.50
2018-03-11T16:07:16.116Z,3.40
2018-03-11T16:09:44.439Z,3.80
2018-03-11T16:12:12.760Z,3.10
2018-03-11T16:14:41.117Z,5.00
2018-03-11T16:17:10.256Z,3.43
2018-03-11T16:19:38.584Z,3.53
2018-03-11T16:22:07.160Z,4.03
2018-03-11T16:24:39.723Z,4.80
2018-03-11T16:27:03.840Z,4.50
2018-03-11T16:29:32.214Z,4.53
2018-03-11T16:32:00.572Z,5.70
2018-03-11T16:34:28.933Z,5.33
2018-03-11T16:36:57.312Z,5.47
2018-03-11T16:39:25.652Z,5.60
2018-03-11T16:41:53.968Z,5.60
2018-03-11T16:44:22.288Z,5.07
2018-03-11T16:46:51.444Z,4.57
2018-03-11T16:49:20.614Z,5.30
2018-03-11T16:51:48.996Z,4.63
2018-03-11T16:54:17.298Z,6.90
2018-03-11T16:56:45.624Z,8.20
2018-03-11T16:59:13.942Z,7.97
2018-03-11T17:01:42.490Z,7.10
2018-03-11T17:04:10.828Z,7.67
2018-03-11T17:06:39.160Z,8.60
2018-03-11T17:09:07.511Z,8.80
2018-03-11T17:11:35.811Z,7.93
2018-03-11T17:14:04.141Z,9.47
2018-03-11T17:16:32.511Z,7.73
2018-03-11T17:19:01.057Z,9.37
2018-03-11T17:21:29.355Z,8.50
2018-03-11T17:23:57.690Z,9.07
2018-03-11T17:26:26.018Z,7.63
2018-03-11T17:28:54.346Z,8.43
2018-03-11T17:31:23.566Z,9.37
2018-03-11T17:33:52.158Z,11.03
2018-03-11T17:36:20.575Z,10.17
2018-03-11T17:38:49.239Z,9.83
2018-03-11T17:41:17.761Z,11.37
2018-03-11T17:43:46.514Z,11.10
2018-03-11T17:46:14.954Z,10.60
2018-03-11T17:48:43.778Z,10.80
2018-03-11T17:51:12.497Z,10.27
2018-03-11T17:53:40.876Z,11.53
2018-03-11T17:56:10.145Z,10.60
2018-03-11T17:58:38.467Z,11.20
2018-03-11T18:01:06.901Z,10.90
2018-03-11T18:03:35.454Z,10.37
2018-03-11T18:06:03.845Z,10.77
2018-03-11T18:08:32.228Z,13.40
2018-03-11T18:11:01.557Z,11.33
2018-03-11T18:13:31.596Z,11.33
2018-03-11T18:16:01.660Z,9.73
2018-03-11T18:18:30.210Z,10.83
2018-03-11T18:20:58.724Z,10.37
2018-03-11T18:23:27.137Z,11.90
2018-03-11T18:25:55.498Z,11.60
2018-03-11T18:30:56.720Z,11.10
2018-03-11T18:33:25.936Z,10.43
2018-03-11T18:35:54.311Z,10.70
2018-03-11T18:38:22.711Z,9.77
2018-03-11T18:40:51.121Z,10.30
2018-03-11T18:43:19.911Z,11.30
2018-03-11T18:45:48.318Z,9.53
2018-03-11T18:48:16.674Z,11.60
2018-03-11T18:50:44.996Z,9.47
2018-03-11T18:53:13.485Z,10.07
2018-03-11T18:55:41.897Z,9.97
2018-03-11T18:58:10.353Z,12.20
2018-03-11T19:00:38.699Z,10.80
2018-03-11T19:03:07.037Z,10.20
2018-03-11T19:05:35.543Z,11.27
2018-03-11T19:08:04.138Z,10.97
2018-03-11T19:10:34.376Z,11.47
2018-03-11T19:13:02.864Z,11.27
2018-03-11T19:15:31.631Z,12.03
2018-03-11T19:18:02.205Z,10.97
2018-03-11T19:20:30.568Z,11.17
2018-03-11T19:22:59.033Z,11.23
2018-03-11T19:25:27.368Z,11.50
2018-03-11T19:27:55.787Z,11.40
2018-03-11T19:30:24.319Z,11.33
2018-03-11T19:32:52.749Z,10.97
2018-03-11T19:35:21.084Z,11.50
2018-03-11T19:37:49.440Z,9.83
2018-03-11T19:40:17.892Z,11.30
2018-03-11T19:42:46.510Z,9.90
2018-03-11T19:45:15.568Z,10.10
2018-03-11T19:47:44.095Z,9.60
2018-03-11T19:50:12.738Z,11.13
2018-03-11T19:52:41.159Z,11.33
2018-03-11T19:55:11.197Z,10.77
2018-03-11T19:57:39.546Z,10.50
2018-03-11T20:00:10.703Z,9.70
2018-03-11T20:02:39.113Z,11.73
2018-03-11T20:05:11.614Z,10.33
2018-03-11T20:07:39.938Z,10.53
2018-03-11T20:10:08.341Z,10.23
2018-03-11T20:12:36.779Z,10.87
2018-03-11T20:15:05.276Z,10.90
2018-03-11T20:17:33.748Z,11.50
2018-03-11T20:20:02.341Z,10.27
2018-03-11T20:22:30.776Z,11.20
2018-03-11T20:24:59.142Z,10.20
2018-03-11T20:27:27.693Z,10.77
2018-03-11T20:29:56.073Z,11.30
2018-03-11T20:32:24.478Z,10.90
2018-03-11T20:34:53.221Z,10.80
2018-03-11T20:37:21.623Z,11.40
2018-03-11T20:39:49.981Z,10.70
2018-03-11T20:42:18.499Z,10.33
2018-03-11T20:44:47.440Z,11.60
2018-03-11T20:47:15.800Z,11.07
2018-03-11T20:49:44.255Z,11.83
2018-03-11T20:52:12.600Z,11.47
2018-03-11T20:54:41.060Z,11.80
2018-03-11T20:57:09.438Z,12.10
2018-03-11T20:59:38.101Z,13.60
2018-03-11T21:02:06.485Z,11.87
2018-03-11T21:04:39.346Z,10.87
2018-03-11T21:07:07.822Z,12.70
2018-03-11T21:09:36.558Z,12.80
2018-03-11T21:12:05.003Z,13.47
2018-03-11T21:14:33.391Z,11.63
2018-03-11T21:17:01.830Z,12.60
2018-03-11T21:19:30.194Z,13.33
2018-03-11T21:21:58.548Z,12.63
2018-03-11T21:24:26.886Z,11.90
2018-03-11T21:26:55.260Z,13.10
2018-03-11T21:29:23.649Z,11.60
2018-03-11T21:31:52.085Z,13.10
2018-03-11T21:34:20.459Z,12.90
2018-03-11T21:36:48.788Z,12.33
2018-03-11T21:39:17.152Z,13.97
2018-03-11T21:41:45.997Z,12.70
2018-03-11T21:44:14.352Z,12.30
2018-03-11T21:46:42.968Z,13.13
2018-03-11T21:49:11.311Z,11.50
2018-03-11T21:51:40.562Z,12.90
2018-03-11T21:54:11.417Z,12.77
2018-03-11T21:56:39.928Z,13.40
2018-03-11T21:59:08.593Z,12.40
2018-03-11T22:01:36.956Z,10.53
2018-03-11T22:04:05.543Z,11.33
2018-03-11T22:06:33.917Z,10.87
2018-03-11T22:09:02.841Z,11.80
2018-03-11T22:11:31.307Z,9.60
2018-03-11T22:13:59.651Z,9.73
2018-03-11T22:16:28.064Z,11.23
2018-03-11T22:18:56.641Z,10.90
2018-03-11T22:21:25.009Z,11.33
2018-03-11T22:23:53.361Z,11.47
2018-03-11T22:26:21.739Z,12.03
2018-03-11T22:28:50.242Z,12.17
2018-03-11T22:31:18.600Z,10.50
2018-03-11T22:33:47.905Z,11.70
2018-03-11T22:36:16.260Z,12.70
2018-03-11T22:38:44.617Z,12.30
2018-03-11T22:41:13.014Z,13.00
2018-03-11T22:43:41.366Z,13.07
2018-03-11T22:46:09.704Z,11.93
2018-03-11T22:48:38.104Z,12.20
2018-03-11T22:51:06.498Z,11.80
2018-03-11T22:53:34.879Z,11.37
2018-03-11T22:56:03.230Z,13.13
2018-03-11T22:58:31.570Z,12.27
2018-03-11T23:00:59.988Z,12.53
2018-03-11T23:03:28.348Z,13.10
2018-03-11T23:05:56.726Z,13.30
2018-03-11T23:08:25.149Z,12.33
2018-03-11T23:10:53.485Z,13.63
2018-03-11T23:13:21.856Z,13.40
2018-03-11T23:15:50.193Z,11.17
2018-03-11T23:18:18.552Z,12.80
2018-03-11T23:20:46.935Z,12.40
2018-03-11T23:23:15.279Z,13.20
2018-03-11T23:25:43.632Z,13.00
2018-03-11T23:28:11.980Z,13.00
2018-03-11T23:30:40.316Z,13.13
2018-03-11T23:33:08.646Z,12.33
2018-03-11T23:35:36.986Z,14.17
2018-03-11T23:38:05.351Z,13.50
2018-03-11T23:40:33.766Z,13.53
2018-03-11T23:43:02.236Z,13.83
2018-03-11T23:45:30.802Z,13.83
2018-03-11T23:47:59.165Z,14.57
2018-03-11T23:50:27.524Z,15.00
2018-03-11T23:52:55.937Z,14.27
2018-03-11T23:55:24.264Z,13.10
2018-03-11T23:57:52.611Z,13.30
